Time;durP1;ratioP1;P1;durP2;ratioP2;P2;SDS_P1;SDS_P2;PMS_P1;PMS_P2;Temp;Humidity;BMP_temperature;BMP_pressure;BME280_temperature;BME280_humidity;BME280_pressure;Samples;Min_cycle;Max_cycle;Signal;HPM_P1;HPM_P2
2022/03/24 00:01:45;;;;;;;5.55;3.80;;;;;;;;;;5046327;28;20021;-51
2022/03/24 00:04:11;;;;;;;5.35;3.78;;;;;;;;;;5046590;28;20053;-53
2022/03/24 00:06:37;;;;;;;5.93;3.83;;;;;;;;;;5043704;28;20060;-51
2022/03/24 00:09:04;;;;;;;5.32;3.78;;;;;;;;;;5046064;28;20048;-51
2022/03/24 00:11:31;;;;;;;5.38;3.63;;;;;;;;;;5046784;28;20059;-52
2022/03/24 00:13:58;;;;;;;6.30;3.88;;;;;;;;;;5046491;28;20458;-50
2022/03/24 00:16:26;;;;;;;6.35;3.85;;;;;;;;;;5041256;28;20026;-49
2022/03/24 00:18:53;;;;;;;6.60;3.95;;;;;;;;;;5025351;28;20056;-52
2022/03/24 00:21:20;;;;;;;6.35;4.15;;;;;;;;;;5026127;28;20121;-52
2022/03/24 00:23:47;;;;;;;5.68;4.10;;;;;;;;;;5025959;28;20029;-51
2022/03/24 00:26:13;;;;;;;7.80;4.80;;;;;;;;;;5027011;28;20075;-51
2022/03/24 00:28:39;;;;;;;6.65;4.68;;;;;;;;;;5044834;28;20500;-49
2022/03/24 00:31:05;;;;;;;6.57;4.15;;;;;;;;;;5046018;28;20021;-52
2022/03/24 00:33:32;;;;;;;5.88;3.88;;;;;;;;;;5045398;28;20051;-52
2022/03/24 00:35:58;;;;;;;6.40;4.30;;;;;;;;;;5043978;28;20439;-49
2022/03/24 00:38:24;;;;;;;6.75;4.22;;;;;;;;;;5045839;28;20385;-50
2022/03/24 00:40:51;;;;;;;9.35;4.38;;;;;;;;;;5045779;28;20041;-51
2022/03/24 00:43:17;;;;;;;8.00;5.40;;;;;;;;;;5044519;28;20029;-51
2022/03/24 00:45:43;;;;;;;8.30;5.10;;;;;;;;;;5044245;28;20493;-48
2022/03/24 00:48:10;;;;;;;6.57;4.43;;;;;;;;;;5045406;28;20025;-51
2022/03/24 00:50:36;;;;;;;6.65;4.47;;;;;;;;;;5044129;28;20192;-51
2022/03/24 00:53:03;;;;;;;5.97;4.38;;;;;;;;;;5045447;28;20549;-50
2022/03/24 00:55:30;;;;;;;7.78;4.90;;;;;;;;;;5044972;28;20040;-49
2022/03/24 00:57:57;;;;;;;8.13;4.88;;;;;;;;;;5045485;28;20025;-51
2022/03/24 01:00:28;;;;;;;7.88;5.60;;;;;;;;;;5045726;28;20066;-52
2022/03/24 01:02:55;;;;;;;8.02;5.03;;;;;;;;;;5044814;28;20056;-51
2022/03/24 01:05:28;;;;;;;7.32;5.65;;;;;;;;;;5043734;28;20511;-50
2022/03/24 01:07:55;;;;;;;9.10;5.55;;;;;;;;;;5045135;28;20404;-48
2022/03/24 01:10:21;;;;;;;10.13;5.63;;;;;;;;;;5044954;28;20110;-48
2022/03/24 01:12:48;;;;;;;7.30;5.43;;;;;;;;;;5045069;28;20029;-50
2022/03/24 01:15:16;;;;;;;7.63;5.00;;;;;;;;;;5043726;28;20507;-49
2022/03/24 01:17:42;;;;;;;7.35;5.00;;;;;;;;;;5044115;28;20028;-50
2022/03/24 01:20:09;;;;;;;6.57;4.75;;;;;;;;;;5044815;28;20602;-50
2022/03/24 01:22:35;;;;;;;7.13;4.93;;;;;;;;;;5044773;28;20036;-48
2022/03/24 01:25:01;;;;;;;7.30;4.72;;;;;;;;;;5040531;28;20137;-51
2022/03/24 01:27:28;;;;;;;8.13;5.28;;;;;;;;;;5045433;28;20032;-52
2022/03/24 01:29:55;;;;;;;8.13;5.00;;;;;;;;;;5044626;28;20028;-51
2022/03/24 01:32:21;;;;;;;7.97;4.97;;;;;;;;;;5041804;28;20041;-50
2022/03/24 01:34:48;;;;;;;9.05;5.60;;;;;;;;;;5043070;28;20500;-52
2022/03/24 01:37:14;;;;;;;10.18;5.75;;;;;;;;;;5043177;28;20330;-50
2022/03/24 01:39:41;;;;;;;8.30;5.22;;;;;;;;;;5025377;28;20094;-49
2022/03/24 01:42:07;;;;;;;9.75;5.93;;;;;;;;;;5024727;28;20381;-51
2022/03/24 01:44:34;;;;;;;8.88;5.85;;;;;;;;;;5029821;28;20537;-49
2022/03/24 01:47:02;;;;;;;9.07;5.72;;;;;;;;;;5044206;28;20044;-48
2022/03/24 01:49:31;;;;;;;10.35;6.00;;;;;;;;;;5045174;28;20024;-49
2022/03/24 01:51:58;;;;;;;9.88;6.32;;;;;;;;;;5044497;28;20419;-49
2022/03/24 01:54:27;;;;;;;9.65;6.70;;;;;;;;;;5043240;28;20431;-51
2022/03/24 01:56:54;;;;;;;11.10;6.60;;;;;;;;;;5044470;28;20027;-51
2022/03/24 01:59:21;;;;;;;8.75;5.57;;;;;;;;;;5044313;28;20029;-52
2022/03/24 02:01:47;;;;;;;9.00;5.60;;;;;;;;;;5044306;28;20021;-48
2022/03/24 02:04:14;;;;;;;10.77;6.53;;;;;;;;;;5043237;28;20024;-49
2022/03/24 02:06:40;;;;;;;9.77;6.32;;;;;;;;;;5045065;28;20441;-49
2022/03/24 02:09:07;;;;;;;9.48;5.90;;;;;;;;;;5044295;28;20107;-50
2022/03/24 02:11:34;;;;;;;9.77;5.90;;;;;;;;;;5044338;28;20100;-50
2022/03/24 02:14:00;;;;;;;9.23;5.90;;;;;;;;;;5042316;28;20124;-49
2022/03/24 02:16:34;;;;;;;8.15;5.80;;;;;;;;;;5038658;28;20032;-52
2022/03/24 02:19:08;;;;;;;10.50;6.53;;;;;;;;;;5024160;28;20501;-50
2022/03/24 02:21:35;;;;;;;12.80;7.35;;;;;;;;;;5023010;28;20128;-49
2022/03/24 02:24:01;;;;;;;9.95;6.18;;;;;;;;;;5024332;28;20048;-48
2022/03/24 02:26:27;;;;;;;9.90;5.93;;;;;;;;;;5044198;28;20025;-52
2022/03/24 02:28:55;;;;;;;9.02;5.90;;;;;;;;;;5043700;28;20091;-47
2022/03/24 02:31:22;;;;;;;9.43;5.68;;;;;;;;;;5045675;28;20143;-49
2022/03/24 02:34:37;;;;;;;9.13;5.53;;;;;;;;;;5047934;28;20036;-49
2022/03/24 02:36:38;;;;;;;8.00;5.03;;;;;;;;;;5028121;28;20567;-51
2022/03/24 02:39:04;;;;;;;8.43;4.95;;;;;;;;;;5027752;28;20033;-53
2022/03/24 02:41:31;;;;;;;7.32;4.75;;;;;;;;;;5028146;28;20108;-49
2022/03/24 02:43:58;;;;;;;8.18;4.38;;;;;;;;;;5027635;28;20327;-48
2022/03/24 02:46:26;;;;;;;8.65;4.97;;;;;;;;;;5027789;28;20065;-48
2022/03/24 02:48:52;;;;;;;9.57;5.32;;;;;;;;;;5027555;28;20033;-50
2022/03/24 02:51:18;;;;;;;5.30;3.97;;;;;;;;;;5027927;28;20022;-49
2022/03/24 02:53:44;;;;;;;5.40;4.13;;;;;;;;;;5027081;28;20056;-48
2022/03/24 02:56:10;;;;;;;8.90;4.45;;;;;;;;;;5045791;28;20359;-49
2022/03/24 02:58:36;;;;;;;9.10;4.97;;;;;;;;;;5047675;28;20052;-49
2022/03/24 03:01:03;;;;;;;8.82;5.57;;;;;;;;;;5047412;28;20057;-49
2022/03/24 03:03:29;;;;;;;6.03;4.57;;;;;;;;;;5047469;28;20033;-49
2022/03/24 03:05:57;;;;;;;8.60;5.35;;;;;;;;;;5045511;28;20561;-52
2022/03/24 03:08:24;;;;;;;8.48;5.50;;;;;;;;;;5027402;28;20061;-49
2022/03/24 03:10:51;;;;;;;8.15;5.65;;;;;;;;;;5026994;28;20064;-50
2022/03/24 03:13:17;;;;;;;11.15;6.40;;;;;;;;;;5027338;28;20436;-49
2022/03/24 03:15:43;;;;;;;7.93;5.85;;;;;;;;;;5040592;28;20378;-49
2022/03/24 03:18:09;;;;;;;11.18;6.40;;;;;;;;;;5038202;28;20030;-51
2022/03/24 03:20:36;;;;;;;9.30;6.20;;;;;;;;;;5027486;28;20389;-49
2022/03/24 03:23:03;;;;;;;10.40;7.05;;;;;;;;;;5027065;28;20397;-49
2022/03/24 03:25:31;;;;;;;7.90;5.45;;;;;;;;;;5027463;28;20395;-49
2022/03/24 03:27:57;;;;;;;9.70;6.50;;;;;;;;;;5029646;28;20025;-51
2022/03/24 03:30:23;;;;;;;9.85;7.03;;;;;;;;;;5046871;28;20028;-48
2022/03/24 03:32:49;;;;;;;11.05;6.68;;;;;;;;;;5046589;28;20025;-47
2022/03/24 03:35:15;;;;;;;11.15;6.95;;;;;;;;;;5042791;28;20128;-49
2022/03/24 03:37:42;;;;;;;12.15;6.78;;;;;;;;;;5026612;28;20022;-52
2022/03/24 03:40:08;;;;;;;9.82;6.70;;;;;;;;;;5026223;28;20405;-50
2022/03/24 03:42:34;;;;;;;8.98;6.05;;;;;;;;;;5027033;28;20492;-51
2022/03/24 03:45:01;;;;;;;9.80;5.95;;;;;;;;;;5026386;28;20121;-51
2022/03/24 03:47:27;;;;;;;9.75;6.55;;;;;;;;;;5027024;28;20060;-49
2022/03/24 03:49:54;;;;;;;9.68;6.35;;;;;;;;;;5044123;28;20044;-48
2022/03/24 03:52:20;;;;;;;8.10;5.30;;;;;;;;;;5046716;28;20081;-48
2022/03/24 03:54:47;;;;;;;8.55;6.22;;;;;;;;;;5046127;28;20040;-51
2022/03/24 03:57:13;;;;;;;8.43;5.55;;;;;;;;;;5046553;28;20033;-49
2022/03/24 03:59:39;;;;;;;8.00;5.43;;;;;;;;;;5044387;28;20178;-52
2022/03/24 04:02:06;;;;;;;8.85;5.70;;;;;;;;;;5046350;28;20021;-51
2022/03/24 04:04:32;;;;;;;9.43;5.82;;;;;;;;;;5045470;28;20025;-48
2022/03/24 04:06:58;;;;;;;8.07;5.43;;;;;;;;;;5026506;28;20029;-51
2022/03/24 04:09:24;;;;;;;7.95;5.35;;;;;;;;;;5042051;28;20036;-51
2022/03/24 04:11:50;;;;;;;8.50;5.50;;;;;;;;;;5046048;28;20029;-52
2022/03/24 04:14:17;;;;;;;7.03;4.97;;;;;;;;;;5046350;28;20037;-50
2022/03/24 04:16:43;;;;;;;6.95;5.07;;;;;;;;;;5045702;28;20419;-48
2022/03/24 04:19:09;;;;;;;7.20;5.10;;;;;;;;;;5044809;28;20036;-49
2022/03/24 04:21:35;;;;;;;10.27;5.65;;;;;;;;;;5046234;28;20029;-50
2022/03/24 04:24:03;;;;;;;8.48;5.95;;;;;;;;;;5046037;28;20025;-47
2022/03/24 04:26:29;;;;;;;10.95;6.90;;;;;;;;;;5046091;28;20029;-49
2022/03/24 04:28:56;;;;;;;9.10;5.90;;;;;;;;;;5045176;28;20436;-49
2022/03/24 04:31:22;;;;;;;13.23;6.68;;;;;;;;;;5045696;28;20565;-52
2022/03/24 04:33:49;;;;;;;9.18;6.18;;;;;;;;;;5045469;28;20052;-50
2022/03/24 04:36:16;;;;;;;10.50;6.47;;;;;;;;;;5045030;28;20408;-49
2022/03/24 04:38:42;;;;;;;10.52;6.10;;;;;;;;;;5036174;28;20037;-50
2022/03/24 04:41:08;;;;;;;10.45;6.90;;;;;;;;;;5045715;28;20543;-51
2022/03/24 04:43:35;;;;;;;10.20;6.72;;;;;;;;;;5045667;28;20108;-50
2022/03/24 04:46:01;;;;;;;10.43;6.10;;;;;;;;;;5045215;28;20056;-52
2022/03/24 04:48:27;;;;;;;10.32;6.22;;;;;;;;;;5037232;28;20029;-49
2022/03/24 04:50:54;;;;;;;10.45;6.93;;;;;;;;;;5025513;28;20076;-52
2022/03/24 04:53:20;;;;;;;9.18;5.95;;;;;;;;;;5028720;28;20602;-52
2022/03/24 04:55:47;;;;;;;9.48;6.20;;;;;;;;;;5046483;28;20027;-48
2022/03/24 04:58:13;;;;;;;10.85;6.50;;;;;;;;;;5046719;28;20084;-52
2022/03/24 05:00:40;;;;;;;8.68;5.95;;;;;;;;;;5030646;28;20025;-51
2022/03/24 05:03:06;;;;;;;10.25;6.57;;;;;;;;;;5027089;28;20030;-50
2022/03/24 05:05:32;;;;;;;10.27;5.95;;;;;;;;;;5045180;28;20434;-51
2022/03/24 05:07:59;;;;;;;9.68;5.72;;;;;;;;;;5046513;28;20025;-51
2022/03/24 05:10:25;;;;;;;9.57;6.05;;;;;;;;;;5046992;28;20068;-52
2022/03/24 05:12:51;;;;;;;9.18;6.70;;;;;;;;;;5046697;28;20423;-51
2022/03/24 05:15:17;;;;;;;11.98;7.50;;;;;;;;;;5045113;28;21029;-51
2022/03/24 05:17:44;;;;;;;11.93;7.28;;;;;;;;;;5046477;28;20108;-52
2022/03/24 05:20:10;;;;;;;12.38;6.95;;;;;;;;;;5046628;28;20515;-50
2022/03/24 05:22:37;;;;;;;12.50;6.45;;;;;;;;;;5044045;28;20032;-52
2022/03/24 05:25:04;;;;;;;9.90;6.75;;;;;;;;;;5045032;28;20067;-51
2022/03/24 05:27:30;;;;;;;11.02;7.45;;;;;;;;;;5046564;28;20056;-51
2022/03/24 05:29:56;;;;;;;14.60;8.60;;;;;;;;;;5035669;28;20033;-52
2022/03/24 05:32:22;;;;;;;12.80;7.90;;;;;;;;;;5026773;28;20048;-51
2022/03/24 05:34:48;;;;;;;12.25;7.28;;;;;;;;;;5035425;28;20037;-51
2022/03/24 05:37:15;;;;;;;11.77;7.40;;;;;;;;;;5044543;28;20029;-48
2022/03/24 05:39:42;;;;;;;13.82;8.07;;;;;;;;;;5044291;28;20024;-50
2022/03/24 05:42:09;;;;;;;14.85;8.32;;;;;;;;;;5045009;28;20025;-52
2022/03/24 05:44:35;;;;;;;10.98;7.10;;;;;;;;;;5038411;28;20021;-51
2022/03/24 05:47:02;;;;;;;10.88;6.82;;;;;;;;;;5044121;28;20034;-47
2022/03/24 05:49:29;;;;;;;9.20;6.43;;;;;;;;;;5039101;28;20607;-51
2022/03/24 05:51:55;;;;;;;12.45;7.70;;;;;;;;;;5046614;28;20058;-52
2022/03/24 05:54:21;;;;;;;8.57;5.90;;;;;;;;;;5045827;28;20757;-48
2022/03/24 05:56:50;;;;;;;10.43;6.32;;;;;;;;;;5039295;28;20033;-52
2022/03/24 05:59:16;;;;;;;10.25;6.53;;;;;;;;;;5037142;28;20429;-50
2022/03/24 06:01:43;;;;;;;9.07;6.00;;;;;;;;;;5031519;28;20073;-51
2022/03/24 06:04:13;;;;;;;9.40;5.97;;;;;;;;;;5026090;28;20029;-49
2022/03/24 06:06:40;;;;;;;10.57;6.68;;;;;;;;;;5030999;28;20526;-51
2022/03/24 06:09:07;;;;;;;9.55;6.35;;;;;;;;;;5036534;28;20057;-51
2022/03/24 06:11:35;;;;;;;8.35;5.80;;;;;;;;;;5049998;28;20083;-50
2022/03/24 06:14:02;;;;;;;10.93;6.63;;;;;;;;;;5049704;28;20040;-51
2022/03/24 06:16:28;;;;;;;9.95;6.88;;;;;;;;;;5050177;28;20025;-50
2022/03/24 06:18:54;;;;;;;11.98;7.13;;;;;;;;;;5048572;28;20021;-52
2022/03/24 06:21:21;;;;;;;9.70;7.05;;;;;;;;;;5049951;28;20028;-50
2022/03/24 06:23:47;;;;;;;11.07;7.35;;;;;;;;;;5038826;28;20036;-51
2022/03/24 06:26:13;;;;;;;10.95;7.00;;;;;;;;;;5029976;28;20025;-52
2022/03/24 06:28:41;;;;;;;11.45;6.68;;;;;;;;;;5030431;28;20029;-48
2022/03/24 06:31:08;;;;;;;12.15;8.10;;;;;;;;;;5029251;28;20091;-48
2022/03/24 06:33:34;;;;;;;12.18;7.10;;;;;;;;;;5033714;28;20068;-50
2022/03/24 06:36:00;;;;;;;9.75;6.38;;;;;;;;;;5056970;28;20389;-50
2022/03/24 06:38:27;;;;;;;11.25;6.63;;;;;;;;;;5060780;28;20108;-52
2022/03/24 06:40:53;;;;;;;10.55;6.78;;;;;;;;;;5030291;28;20038;-48
2022/03/24 06:43:19;;;;;;;12.38;7.50;;;;;;;;;;5029539;28;20429;-50
2022/03/24 06:45:46;;;;;;;11.70;7.93;;;;;;;;;;5039435;28;20037;-47
2022/03/24 06:48:13;;;;;;;14.95;8.10;;;;;;;;;;5048497;28;20396;-52
2022/03/24 06:50:39;;;;;;;14.00;8.30;;;;;;;;;;5049362;28;20447;-51
2022/03/24 06:53:05;;;;;;;11.02;7.35;;;;;;;;;;5049340;28;20010;-51
2022/03/24 06:55:32;;;;;;;10.43;6.95;;;;;;;;;;5049302;28;20499;-49
2022/03/24 06:57:58;;;;;;;10.88;7.05;;;;;;;;;;5047823;28;20029;-52
2022/03/24 07:00:24;;;;;;;9.88;6.68;;;;;;;;;;5049956;28;20037;-49
2022/03/24 07:02:51;;;;;;;9.27;6.78;;;;;;;;;;5041520;28;20040;-49
2022/03/24 07:05:17;;;;;;;9.30;6.57;;;;;;;;;;5031014;28;20034;-50
2022/03/24 07:07:44;;;;;;;9.55;6.25;;;;;;;;;;5026130;28;20087;-47
2022/03/24 07:10:11;;;;;;;9.80;6.72;;;;;;;;;;5027640;28;20033;-48
2022/03/24 07:12:37;;;;;;;10.77;7.43;;;;;;;;;;5027600;28;20056;-50
2022/03/24 07:15:03;;;;;;;10.93;7.00;;;;;;;;;;5027071;28;20065;-47
2022/03/24 07:17:30;;;;;;;9.30;6.70;;;;;;;;;;5026899;28;20075;-49
2022/03/24 07:19:56;;;;;;;11.23;6.70;;;;;;;;;;5027844;28;20031;-49
2022/03/24 07:22:22;;;;;;;9.65;6.82;;;;;;;;;;5027222;28;20459;-49
2022/03/24 07:24:49;;;;;;;11.93;6.72;;;;;;;;;;5026973;28;20044;-49
2022/03/24 07:27:16;;;;;;;10.43;6.85;;;;;;;;;;5026969;28;20500;-49
2022/03/24 07:29:42;;;;;;;10.02;6.70;;;;;;;;;;5026689;28;20037;-52
2022/03/24 07:32:09;;;;;;;11.45;6.70;;;;;;;;;;5027447;28;20522;-49
2022/03/24 07:34:35;;;;;;;7.80;5.30;;;;;;;;;;5038987;28;20033;-51
2022/03/24 07:37:03;;;;;;;7.63;5.65;;;;;;;;;;5039364;28;20041;-52
2022/03/24 07:39:29;;;;;;;8.65;6.18;;;;;;;;;;5031694;28;20020;-47
2022/03/24 07:41:55;;;;;;;7.78;5.57;;;;;;;;;;5046859;28;20041;-48
2022/03/24 07:44:21;;;;;;;7.57;5.50;;;;;;;;;;5048219;28;20054;-50
2022/03/24 07:46:48;;;;;;;9.15;5.45;;;;;;;;;;5047631;28;20465;-49
2022/03/24 07:49:14;;;;;;;7.45;4.95;;;;;;;;;;5046556;28;20032;-48
2022/03/24 07:51:41;;;;;;;7.32;5.03;;;;;;;;;;5046363;28;20140;-51
2022/03/24 07:54:09;;;;;;;6.85;4.72;;;;;;;;;;5046422;28;20120;-48
2022/03/24 07:56:36;;;;;;;7.57;4.82;;;;;;;;;;5046790;28;20029;-52
2022/03/24 07:59:05;;;;;;;7.30;4.80;;;;;;;;;;5046355;28;20059;-49
2022/03/24 08:01:40;;;;;;;5.43;4.32;;;;;;;;;;5046703;28;20116;-51
2022/03/24 08:04:06;;;;;;;4.88;3.95;;;;;;;;;;5046214;28;20029;-48
2022/03/24 08:06:35;;;;;;;5.90;4.22;;;;;;;;;;5046494;28;20116;-48
2022/03/24 08:09:01;;;;;;;7.55;4.75;;;;;;;;;;5046081;28;20083;-49
2022/03/24 08:11:28;;;;;;;7.53;4.10;;;;;;;;;;5047476;28;20048;-49
2022/03/24 08:13:55;;;;;;;7.60;4.72;;;;;;;;;;5046323;28;20032;-49
2022/03/24 08:16:22;;;;;;;5.93;4.07;;;;;;;;;;5046386;28;20013;-49
2022/03/24 08:18:48;;;;;;;5.80;4.50;;;;;;;;;;5046248;28;20036;-51
2022/03/24 08:21:14;;;;;;;5.75;3.95;;;;;;;;;;5046108;28;20407;-52
2022/03/24 08:23:40;;;;;;;7.57;4.40;;;;;;;;;;5046135;28;20033;-52
2022/03/24 08:26:07;;;;;;;7.25;4.68;;;;;;;;;;5045941;28;20025;-48
2022/03/24 08:28:33;;;;;;;6.03;4.20;;;;;;;;;;5045101;28;20040;-51
2022/03/24 08:30:59;;;;;;;5.95;4.30;;;;;;;;;;5045760;28;20087;-50
2022/03/24 08:33:25;;;;;;;6.28;4.20;;;;;;;;;;5046435;28;20112;-51
2022/03/24 08:35:52;;;;;;;7.00;4.15;;;;;;;;;;5046083;28;20032;-51
2022/03/24 08:38:18;;;;;;;5.40;4.30;;;;;;;;;;5046119;28;20537;-53
2022/03/24 08:40:44;;;;;;;5.82;4.18;;;;;;;;;;5045681;28;20025;-51
2022/03/24 08:43:10;;;;;;;8.15;4.18;;;;;;;;;;5045617;28;20382;-51
2022/03/24 08:45:37;;;;;;;4.97;3.28;;;;;;;;;;5045684;28;20033;-51
2022/03/24 08:48:05;;;;;;;4.28;3.00;;;;;;;;;;5045766;28;20499;-48
2022/03/24 08:50:32;;;;;;;4.60;3.00;;;;;;;;;;5045470;28;20048;-51
2022/03/24 08:52:59;;;;;;;4.03;2.78;;;;;;;;;;5045437;28;20523;-49
2022/03/24 08:55:25;;;;;;;3.22;2.47;;;;;;;;;;5045955;28;20033;-51
2022/03/24 08:57:52;;;;;;;3.83;2.67;;;;;;;;;;5045058;28;20079;-52
2022/03/24 09:00:18;;;;;;;3.88;2.75;;;;;;;;;;5045366;28;20505;-51
2022/03/24 09:02:46;;;;;;;3.80;2.80;;;;;;;;;;5045155;28;20035;-48
2022/03/24 09:05:13;;;;;;;4.03;2.50;;;;;;;;;;5045184;28;20037;-51
2022/03/24 09:07:40;;;;;;;3.35;2.55;;;;;;;;;;5045425;28;20025;-52
2022/03/24 09:10:07;;;;;;;2.90;2.33;;;;;;;;;;5045106;28;20029;-49
2022/03/24 09:12:34;;;;;;;3.20;2.80;;;;;;;;;;5044995;28;20045;-51
2022/03/24 09:15:05;;;;;;;2.72;2.10;;;;;;;;;;5044783;28;20113;-51
2022/03/24 09:17:34;;;;;;;3.53;2.67;;;;;;;;;;5045312;28;20562;-51
2022/03/24 09:20:00;;;;;;;3.58;2.50;;;;;;;;;;5045046;28;20594;-53
2022/03/24 09:22:26;;;;;;;3.22;2.40;;;;;;;;;;5045908;28;20025;-51
2022/03/24 09:24:53;;;;;;;3.13;2.38;;;;;;;;;;5044924;28;20423;-52
2022/03/24 09:27:19;;;;;;;4.22;2.85;;;;;;;;;;5044755;28;20504;-52
2022/03/24 09:29:46;;;;;;;2.92;2.35;;;;;;;;;;5044765;28;20025;-51
2022/03/24 09:32:12;;;;;;;3.15;2.45;;;;;;;;;;5044724;28;20033;-49
2022/03/24 09:34:40;;;;;;;3.78;2.40;;;;;;;;;;5044724;28;20056;-50
2022/03/24 09:37:07;;;;;;;3.97;2.88;;;;;;;;;;5045086;28;20472;-49
2022/03/24 09:39:33;;;;;;;3.20;2.20;;;;;;;;;;5044540;28;20029;-49
2022/03/24 09:41:59;;;;;;;2.95;2.17;;;;;;;;;;5044432;28;20545;-52
2022/03/24 09:44:26;;;;;;;3.33;2.50;;;;;;;;;;5045629;28;20025;-48
2022/03/24 09:46:52;;;;;;;3.88;2.50;;;;;;;;;;5044481;28;20638;-51
2022/03/24 09:49:18;;;;;;;3.60;2.30;;;;;;;;;;5044729;28;20025;-52
2022/03/24 09:51:45;;;;;;;4.78;3.10;;;;;;;;;;5044424;28;20676;-52
2022/03/24 09:54:11;;;;;;;4.03;2.58;;;;;;;;;;5044604;28;20033;-50
2022/03/24 09:56:39;;;;;;;3.15;2.58;;;;;;;;;;5044157;28;20108;-49
2022/03/24 09:59:07;;;;;;;3.50;2.80;;;;;;;;;;5044684;28;20048;-50
2022/03/24 10:01:35;;;;;;;3.50;2.75;;;;;;;;;;5044784;28;20472;-50
2022/03/24 10:04:05;;;;;;;4.20;2.85;;;;;;;;;;5044379;28;20033;-51
2022/03/24 10:06:33;;;;;;;3.63;2.45;;;;;;;;;;5044783;28;20478;-50
2022/03/24 10:09:00;;;;;;;4.30;2.95;;;;;;;;;;5044299;28;20051;-52
2022/03/24 10:11:27;;;;;;;4.78;3.33;;;;;;;;;;5044954;28;20025;-52
2022/03/24 10:13:58;;;;;;;6.30;3.60;;;;;;;;;;5044849;28;20033;-50
2022/03/24 10:16:44;;;;;;;4.18;3.20;;;;;;;;;;5045058;28;20458;-52
2022/03/24 10:19:12;;;;;;;5.82;3.47;;;;;;;;;;5044432;28;20049;-52
2022/03/24 10:21:40;;;;;;;6.07;4.10;;;;;;;;;;5043936;28;20021;-52
2022/03/24 10:24:14;;;;;;;4.35;3.20;;;;;;;;;;5044415;28;20025;-49
2022/03/24 10:26:41;;;;;;;;;;;;;;;;;;5044544;28;20173;-48
2022/03/24 10:29:08;;;;;;;4.35;2.83;;;;;;;;;;5044149;28;20289;-50
2022/03/24 10:31:36;;;;;;;4.82;3.58;;;;;;;;;;5044233;28;20032;-50
2022/03/24 10:34:02;;;;;;;4.60;2.97;;;;;;;;;;5043874;28;20037;-49
2022/03/24 10:36:29;;;;;;;3.80;2.67;;;;;;;;;;5044346;28;20148;-52
2022/03/24 10:39:04;;;;;;;4.72;3.13;;;;;;;;;;5044788;28;20021;-49
2022/03/24 10:41:32;;;;;;;5.32;3.65;;;;;;;;;;5043986;28;20025;-51
2022/03/24 10:44:00;;;;;;;4.97;3.22;;;;;;;;;;5044022;28;20641;-52
2022/03/24 10:46:28;;;;;;;4.10;2.95;;;;;;;;;;5044783;28;20385;-51
2022/03/24 10:48:55;;;;;;;4.70;3.17;;;;;;;;;;5044588;28;20492;-49
2022/03/24 10:51:27;;;;;;;4.25;3.20;;;;;;;;;;5045753;28;20500;-48
2022/03/24 10:53:54;;;;;;;8.35;4.30;;;;;;;;;;5047305;28;20041;-49
2022/03/24 10:56:39;;;;;;;5.30;3.80;;;;;;;;;;5047782;28;20539;-51
2022/03/24 10:59:05;;;;;;;4.78;3.00;;;;;;;;;;5047725;28;20033;-49
2022/03/24 11:01:32;;;;;;;5.20;3.40;;;;;;;;;;5047743;28;20029;-48
2022/03/24 11:03:59;;;;;;;5.32;3.47;;;;;;;;;;5047157;28;20563;-48
2022/03/24 11:06:27;;;;;;;4.95;3.38;;;;;;;;;;5048597;28;20100;-49
2022/03/24 11:08:54;;;;;;;4.38;2.85;;;;;;;;;;5047695;28;20419;-48
2022/03/24 11:11:20;;;;;;;3.40;2.67;;;;;;;;;;5047410;28;20029;-50
2022/03/24 11:13:48;;;;;;;4.82;3.10;;;;;;;;;;5047151;28;20055;-48
2022/03/24 11:16:15;;;;;;;4.15;2.88;;;;;;;;;;5047701;28;20403;-50
2022/03/24 11:18:41;;;;;;;4.03;2.90;;;;;;;;;;5040204;28;20473;-50
2022/03/24 11:21:31;;;;;;;3.67;2.63;;;;;;;;;;5045100;28;20025;-48
2022/03/24 11:23:58;;;;;;;3.80;2.70;;;;;;;;;;5038987;28;20605;-49
2022/03/24 11:26:25;;;;;;;3.40;2.67;;;;;;;;;;5040656;28;20045;-49
2022/03/24 11:28:54;;;;;;;4.05;2.55;;;;;;;;;;5039956;28;20025;-49
2022/03/24 11:31:20;;;;;;;3.53;2.42;;;;;;;;;;5033110;28;20037;-48
2022/03/24 11:33:48;;;;;;;3.38;2.53;;;;;;;;;;5028151;28;20021;-51
2022/03/24 11:36:16;;;;;;;2.90;2.20;;;;;;;;;;5028685;28;20037;-50
2022/03/24 11:38:43;;;;;;;2.78;2.15;;;;;;;;;;5028571;28;20029;-48
2022/03/24 11:41:17;;;;;;;3.88;2.80;;;;;;;;;;5028649;28;20022;-48
2022/03/24 11:43:45;;;;;;;4.32;2.30;;;;;;;;;;5028884;28;20029;-50
2022/03/24 11:46:12;;;;;;;4.10;3.15;;;;;;;;;;5048245;28;20041;-48
2022/03/24 11:48:40;;;;;;;3.67;2.65;;;;;;;;;;5048345;28;20412;-48
2022/03/24 11:51:26;;;;;;;3.83;2.80;;;;;;;;;;5047041;28;20032;-48
2022/03/24 11:54:05;;;;;;;3.10;2.72;;;;;;;;;;5037430;28;20625;-50
2022/03/24 11:56:32;;;;;;;2.95;2.30;;;;;;;;;;5039494;28;20504;-52
2022/03/24 11:58:59;;;;;;;3.25;2.70;;;;;;;;;;5031471;28;20029;-49
2022/03/24 12:01:25;;;;;;;3.70;2.53;;;;;;;;;;5033963;28;20558;-51
2022/03/24 12:04:10;;;;;;;3.75;2.95;;;;;;;;;;5031854;28;20026;-49
2022/03/24 12:06:43;;;;;;;4.07;3.00;;;;;;;;;;5037588;28;20037;-50
2022/03/24 12:09:10;;;;;;;4.37;3.03;;;;;;;;;;5038870;28;20634;-52
2022/03/24 12:11:38;;;;;;;5.22;3.63;;;;;;;;;;5030114;28;20651;-52
2022/03/24 12:14:11;;;;;;;5.05;3.78;;;;;;;;;;5026316;28;20542;-49
2022/03/24 12:16:38;;;;;;;5.10;3.40;;;;;;;;;;5038857;28;20464;-52
2022/03/24 12:19:08;;;;;;;3.72;2.80;;;;;;;;;;5047140;28;20462;-49
2022/03/24 12:21:35;;;;;;;3.17;2.63;;;;;;;;;;5047934;28;20040;-49
2022/03/24 12:24:18;;;;;;;4.72;3.15;;;;;;;;;;5046760;28;20159;-49
2022/03/24 12:26:50;;;;;;;3.83;3.30;;;;;;;;;;5045540;28;20025;-49
2022/03/24 12:29:17;;;;;;;3.95;3.00;;;;;;;;;;5045962;28;20085;-49
2022/03/24 12:31:55;;;;;;;4.78;3.40;;;;;;;;;;5045787;28;20025;-50
2022/03/24 12:34:22;;;;;;;4.78;3.35;;;;;;;;;;5045707;28;20112;-51
2022/03/24 12:36:48;;;;;;;4.50;3.50;;;;;;;;;;5045882;28;20526;-49
2022/03/24 12:39:30;;;;;;;4.68;3.42;;;;;;;;;;5045958;28;20025;-49
2022/03/24 12:42:04;;;;;;;4.75;3.20;;;;;;;;;;5037028;28;20079;-51
2022/03/24 12:44:49;;;;;;;3.85;3.03;;;;;;;;;;5035975;28;20041;-48
2022/03/24 12:47:15;;;;;;;;;;;;;;;;;;5047643;28;20086;-49
2022/03/24 12:49:41;;;;;;;4.18;3.25;;;;;;;;;;5029944;28;20272;-52
2022/03/24 12:52:10;;;;;;;4.63;3.33;;;;;;;;;;5029093;28;20489;-52
2022/03/24 12:54:41;;;;;;;3.20;2.70;;;;;;;;;;5037428;28;20036;-52
2022/03/24 12:57:27;;;;;;;3.08;2.28;;;;;;;;;;5045581;28;20612;-52
2022/03/24 12:59:53;;;;;;;3.13;2.30;;;;;;;;;;5045084;28;20503;-52
2022/03/24 13:02:19;;;;;;;4.30;3.17;;;;;;;;;;5028960;28;20068;-51
2022/03/24 13:04:47;;;;;;;3.33;2.50;;;;;;;;;;5025326;28;20508;-51
2022/03/24 13:07:14;;;;;;;4.80;3.30;;;;;;;;;;5025557;28;20036;-51
2022/03/24 13:09:40;;;;;;;2.75;2.00;;;;;;;;;;5025005;28;20068;-52
2022/03/24 13:12:12;;;;;;;3.13;2.47;;;;;;;;;;5025905;28;20033;-49
2022/03/24 13:14:46;;;;;;;3.10;2.35;;;;;;;;;;5024696;28;20624;-51
2022/03/24 13:17:13;;;;;;;3.17;2.55;;;;;;;;;;5025435;28;20026;-50
2022/03/24 13:19:40;;;;;;;3.20;2.58;;;;;;;;;;5025116;28;20543;-49
2022/03/24 13:22:19;;;;;;;2.97;2.58;;;;;;;;;;5035139;28;20147;-49
2022/03/24 13:25:06;;;;;;;3.35;2.45;;;;;;;;;;5044497;28;20041;-49
2022/03/24 13:27:34;;;;;;;3.58;2.70;;;;;;;;;;5045101;28;20041;-48
2022/03/24 13:30:04;;;;;;;3.38;2.60;;;;;;;;;;5037334;28;20120;-50
2022/03/24 13:32:31;;;;;;;4.05;2.83;;;;;;;;;;5037407;28;20067;-49
2022/03/24 13:35:01;;;;;;;2.58;2.13;;;;;;;;;;5040551;28;20163;-50
2022/03/24 13:37:35;;;;;;;4.55;2.45;;;;;;;;;;5032787;28;20492;-52
2022/03/24 13:40:02;;;;;;;2.85;2.30;;;;;;;;;;5024659;28;20412;-53
2022/03/24 13:42:28;;;;;;;2.85;2.50;;;;;;;;;;5025380;28;20483;-53
2022/03/24 13:44:55;;;;;;;3.20;2.58;;;;;;;;;;5023204;28;20163;-51
2022/03/24 13:47:23;;;;;;;3.30;2.10;;;;;;;;;;5024884;28;20044;-50
2022/03/24 13:49:54;;;;;;;4.80;2.83;;;;;;;;;;5024603;28;20055;-53
2022/03/24 13:52:52;;;;;;;3.10;2.47;;;;;;;;;;5024709;28;20138;-53
2022/03/24 13:55:21;;;;;;;4.45;2.90;;;;;;;;;;5021694;28;20041;-51
2022/03/24 13:57:47;;;;;;;3.13;2.53;;;;;;;;;;5023326;28;20416;-50
2022/03/24 14:00:23;;;;;;;4.80;3.25;;;;;;;;;;5037682;28;20450;-51
2022/03/24 14:02:55;;;;;;;3.25;2.78;;;;;;;;;;5027345;28;20520;-52
2022/03/24 14:05:22;;;;;;;4.43;2.70;;;;;;;;;;5024271;28;20033;-52
2022/03/24 14:07:59;;;;;;;3.42;2.83;;;;;;;;;;5024720;28;20072;-49
2022/03/24 14:10:44;;;;;;;3.28;2.60;;;;;;;;;;5024932;28;20081;-53
2022/03/24 14:13:14;;;;;;;3.33;2.70;;;;;;;;;;5023233;28;20053;-52
2022/03/24 14:15:40;;;;;;;3.17;2.65;;;;;;;;;;5024925;28;20428;-54
2022/03/24 14:18:22;;;;;;;2.97;2.67;;;;;;;;;;5043728;28;20036;-53
2022/03/24 14:20:52;;;;;;;3.10;2.60;;;;;;;;;;5044284;28;20385;-51
2022/03/24 14:23:34;;;;;;;4.07;3.35;;;;;;;;;;5044210;28;20104;-51
2022/03/24 14:26:02;;;;;;;4.15;3.40;;;;;;;;;;5043269;28;20091;-51
2022/03/24 14:28:31;;;;;;;4.80;3.90;;;;;;;;;;5049354;28;20039;-50
2022/03/24 14:30:58;;;;;;;4.05;3.47;;;;;;;;;;5048901;28;20025;-50
2022/03/24 14:33:26;;;;;;;3.75;3.13;;;;;;;;;;5049310;28;20017;-49
2022/03/24 14:35:59;;;;;;;5.25;3.60;;;;;;;;;;5043630;28;20045;-51
2022/03/24 14:38:25;;;;;;;5.10;3.88;;;;;;;;;;5047954;28;20563;-49
2022/03/24 14:40:52;;;;;;;4.53;3.83;;;;;;;;;;5047750;28;20025;-52
2022/03/24 14:43:22;;;;;;;3.30;3.00;;;;;;;;;;5034314;28;20033;-50
2022/03/24 14:45:49;;;;;;;4.43;3.10;;;;;;;;;;5027559;28;20041;-48